createdAt,value
2023-02-06T00:01:47.999Z,13.13
2023-02-06T00:04:14.866Z,13.45
2023-02-06T00:06:42.693Z,14.05
2023-02-06T00:09:09.889Z,14.15
2023-02-06T00:11:36.547Z,13.77
2023-02-06T00:14:03.295Z,13.73
2023-02-06T00:16:32.761Z,12.38
2023-02-06T00:19:00.440Z,14.10
2023-02-06T00:21:28.473Z,15.32
2023-02-06T00:23:57.927Z,13.45
2023-02-06T00:26:25.519Z,14.25
2023-02-06T00:28:52.530Z,14.63
2023-02-06T00:31:19.246Z,13.50
2023-02-06T00:33:45.939Z,14.00
2023-02-06T00:36:12.818Z,13.35
2023-02-06T00:38:39.785Z,13.45
2023-02-06T00:41:09.175Z,13.20
2023-02-06T00:43:36.417Z,14.00
2023-02-06T00:46:03.338Z,13.30
2023-02-06T00:48:29.932Z,13.77
2023-02-06T00:50:56.682Z,12.35
2023-02-06T00:53:23.232Z,12.07
2023-02-06T00:55:49.789Z,12.38
2023-02-06T00:58:16.350Z,12.50
2023-02-06T01:00:43.281Z,12.65
2023-02-06T01:03:10.013Z,12.98
2023-02-06T01:05:36.965Z,11.50
2023-02-06T01:08:04.647Z,11.82
2023-02-06T01:10:31.785Z,13.63
2023-02-06T01:12:58.651Z,13.05
2023-02-06T01:15:25.434Z,13.02
2023-02-06T01:17:52.314Z,12.77
2023-02-06T01:20:18.974Z,12.25
2023-02-06T01:22:45.563Z,11.82
2023-02-06T01:25:12.217Z,13.05
2023-02-06T01:27:39.059Z,12.27
2023-02-06T01:30:07.036Z,12.55
2023-02-06T01:32:37.789Z,13.18
2023-02-06T01:35:06.652Z,13.50
2023-02-06T01:37:33.752Z,13.85
2023-02-06T01:40:00.302Z,14.48
2023-02-06T01:42:26.835Z,14.32
2023-02-06T01:45:19.195Z,13.70
2023-02-06T01:47:45.743Z,13.80
2023-02-06T01:50:12.294Z,13.27
2023-02-06T01:52:38.964Z,14.40
2023-02-06T01:55:06.226Z,14.18
2023-02-06T01:57:34.343Z,14.18
2023-02-06T02:00:06.447Z,14.75
2023-02-06T02:02:34.576Z,15.05
2023-02-06T02:05:03.095Z,14.85
2023-02-06T02:07:37.111Z,14.43
2023-02-06T02:10:04.701Z,13.90
2023-02-06T02:12:31.304Z,13.82
2023-02-06T02:14:58.742Z,14.25
2023-02-06T02:17:43.718Z,13.27
2023-02-06T02:20:46.631Z,13.27
2023-02-06T02:23:42.548Z,14.18
2023-02-06T02:29:11.989Z,12.80
2023-02-06T02:32:03.985Z,12.80
2023-02-06T02:34:36.188Z,13.90
2023-02-06T02:37:20.791Z,13.85
2023-02-06T02:40:23.691Z,13.13
2023-02-06T02:43:19.668Z,13.63
2023-02-06T02:48:22.490Z,12.13
2023-02-06T02:50:50.346Z,12.45
2023-02-06T02:53:17.052Z,13.27
2023-02-06T02:55:43.616Z,12.68
2023-02-06T02:58:15.254Z,12.10
2023-02-06T03:01:07.300Z,10.98
2023-02-06T03:03:36.583Z,11.25
2023-02-06T03:06:40.580Z,11.20
2023-02-06T03:09:25.237Z,12.32
2023-02-06T03:12:20.637Z,11.03
2023-02-06T03:15:24.760Z,10.18
2023-02-06T03:18:31.318Z,11.00
2023-02-06T03:20:59.795Z,11.05
2023-02-06T03:23:32.427Z,10.82
2023-02-06T03:26:02.575Z,9.77
2023-02-06T03:28:34.472Z,11.02
2023-02-06T03:31:05.514Z,11.30
2023-02-06T03:33:37.851Z,11.23
2023-02-06T03:36:05.204Z,10.30
2023-02-06T03:38:32.161Z,11.00
2023-02-06T03:41:00.370Z,11.50
2023-02-06T03:43:29.381Z,11.57
2023-02-06T03:46:00.818Z,10.52
2023-02-06T03:48:30.062Z,9.85
2023-02-06T03:51:01.231Z,9.70
2023-02-06T03:53:29.879Z,9.63
2023-02-06T03:56:00.839Z,10.48
2023-02-06T03:58:27.464Z,10.88
2023-02-06T04:00:54.211Z,10.40
2023-02-06T04:03:21.421Z,9.73
2023-02-06T04:05:48.136Z,10.50
2023-02-06T04:08:14.668Z,9.57
2023-02-06T04:10:41.227Z,11.07
2023-02-06T04:13:07.745Z,10.63
2023-02-06T04:15:34.818Z,10.68
2023-02-06T04:18:02.047Z,11.45
2023-02-06T04:20:29.566Z,11.40
2023-02-06T04:22:57.109Z,11.95
2023-02-06T04:25:24.026Z,11.52
2023-02-06T04:27:51.249Z,11.23
2023-02-06T04:30:18.172Z,12.73
2023-02-06T04:32:44.827Z,11.23
2023-02-06T04:35:11.511Z,11.93
2023-02-06T04:37:38.292Z,11.82
2023-02-06T04:40:05.350Z,12.02
2023-02-06T04:42:32.024Z,12.18
2023-02-06T04:44:58.558Z,11.93
2023-02-06T04:47:25.287Z,12.45
2023-02-06T04:49:51.870Z,13.00
2023-02-06T04:52:18.529Z,12.25
2023-02-06T04:54:45.035Z,12.45
2023-02-06T04:57:11.533Z,11.90
2023-02-06T04:59:38.032Z,11.23
2023-02-06T05:02:04.624Z,12.80
2023-02-06T05:04:31.307Z,11.68
2023-02-06T05:06:57.885Z,11.27
2023-02-06T05:09:24.469Z,11.32
2023-02-06T05:11:54.184Z,11.85
2023-02-06T05:14:20.833Z,11.60
2023-02-06T05:16:47.431Z,12.00
2023-02-06T05:19:14.020Z,11.25
2023-02-06T05:21:40.635Z,12.13
2023-02-06T05:24:07.264Z,12.25
2023-02-06T05:26:33.890Z,12.88
2023-02-06T05:29:00.668Z,12.63
2023-02-06T05:31:27.371Z,12.23
2023-02-06T05:33:54.980Z,11.30
2023-02-06T05:36:22.467Z,12.82
2023-02-06T05:38:50.120Z,12.80
2023-02-06T05:41:17.227Z,12.77
2023-02-06T05:43:43.895Z,12.45
2023-02-06T05:46:13.072Z,12.57
2023-02-06T05:48:40.551Z,12.75
2023-02-06T05:51:07.453Z,12.77
2023-02-06T05:53:34.048Z,12.30
2023-02-06T05:56:00.629Z,12.88
2023-02-06T05:58:27.346Z,11.85
2023-02-06T06:00:53.932Z,11.80
2023-02-06T06:03:20.493Z,11.38
2023-02-06T06:05:47.244Z,12.80
2023-02-06T06:08:14.723Z,12.55
2023-02-06T06:10:41.409Z,12.88
2023-02-06T06:13:08.358Z,12.57
2023-02-06T06:15:36.188Z,11.40
2023-02-06T06:18:03.883Z,11.70
2023-02-06T06:20:30.597Z,13.38
2023-02-06T06:22:57.227Z,14.35
2023-02-06T06:25:23.905Z,14.90
2023-02-06T06:27:50.711Z,12.85
2023-02-06T06:30:17.444Z,13.05
2023-02-06T06:32:44.021Z,12.82
2023-02-06T06:35:10.688Z,14.50
2023-02-06T06:37:37.361Z,13.20
2023-02-06T06:40:04.221Z,13.70
2023-02-06T06:42:30.839Z,12.00
2023-02-06T06:44:57.538Z,12.50
2023-02-06T06:47:24.187Z,13.23
2023-02-06T06:49:50.816Z,12.77
2023-02-06T06:52:25.099Z,15.13
2023-02-06T06:54:53.073Z,14.95
2023-02-06T06:57:21.101Z,14.27
2023-02-06T06:59:48.246Z,14.63
2023-02-06T07:02:15.520Z,15.73
2023-02-06T07:04:42.509Z,20.13
2023-02-06T07:07:09.476Z,15.30
2023-02-06T07:09:36.156Z,15.00
2023-02-06T07:12:03.128Z,13.68
2023-02-06T07:14:29.734Z,13.63
2023-02-06T07:16:56.410Z,14.20
2023-02-06T07:19:23.214Z,14.38
2023-02-06T07:21:49.986Z,14.95
2023-02-06T07:24:16.516Z,14.68
2023-02-06T07:26:43.380Z,13.95
2023-02-06T07:29:10.056Z,14.25
2023-02-06T07:31:36.724Z,15.32
2023-02-06T07:34:03.872Z,15.35
2023-02-06T07:36:30.557Z,14.95
2023-02-06T07:38:57.172Z,15.85
2023-02-06T07:41:23.759Z,14.40
2023-02-06T07:43:50.380Z,15.02
2023-02-06T07:46:17.125Z,15.63
2023-02-06T07:48:44.723Z,13.82
2023-02-06T07:51:11.341Z,15.20
2023-02-06T07:53:38.399Z,16.30
2023-02-06T07:56:18.684Z,16.33
2023-02-06T07:58:49.161Z,15.75
2023-02-06T08:01:15.924Z,16.67
2023-02-06T08:03:42.576Z,15.38
2023-02-06T08:06:11.194Z,16.05
2023-02-06T08:08:38.417Z,15.00
2023-02-06T08:11:07.103Z,14.05
2023-02-06T08:13:34.926Z,13.63
2023-02-06T08:16:06.320Z,14.57
2023-02-06T08:18:32.975Z,14.60
2023-02-06T08:21:04.712Z,14.32
2023-02-06T08:23:31.819Z,12.45
2023-02-06T08:26:07.843Z,14.15
2023-02-06T08:28:35.355Z,10.93
2023-02-06T08:31:10.229Z,9.38
2023-02-06T08:33:37.344Z,9.32
2023-02-06T08:36:05.434Z,8.45
2023-02-06T08:38:32.086Z,8.50
2023-02-06T08:40:58.672Z,9.13
2023-02-06T08:43:25.437Z,8.85
2023-02-06T08:45:53.318Z,9.43
2023-02-06T08:48:19.977Z,8.13
2023-02-06T08:50:49.589Z,5.68
2023-02-06T08:53:16.131Z,5.90
2023-02-06T08:55:42.861Z,5.05
2023-02-06T08:58:09.447Z,5.05
2023-02-06T09:00:36.207Z,5.90
2023-02-06T09:03:02.811Z,5.15
2023-02-06T09:05:29.447Z,3.88
2023-02-06T09:07:56.172Z,3.83
2023-02-06T09:10:27.835Z,4.18
2023-02-06T09:12:54.966Z,4.25
2023-02-06T09:15:21.788Z,4.10
2023-02-06T09:17:48.378Z,4.18
2023-02-06T09:20:15.185Z,4.75
2023-02-06T09:22:41.939Z,4.63
2023-02-06T09:25:08.720Z,4.13
2023-02-06T09:27:36.082Z,4.30
2023-02-06T09:30:03.080Z,4.55
2023-02-06T09:32:29.680Z,4.30
2023-02-06T09:34:57.304Z,3.80
2023-02-06T09:37:23.871Z,4.20
2023-02-06T09:39:50.451Z,3.88
2023-02-06T09:42:24.169Z,4.22
2023-02-06T09:45:04.223Z,4.57
2023-02-06T09:47:34.364Z,4.43
2023-02-06T09:50:07.586Z,3.90
2023-02-06T09:52:46.179Z,3.92
2023-02-06T09:55:42.667Z,4.03
2023-02-06T09:58:42.180Z,3.78
2023-02-06T10:01:21.665Z,4.47
2023-02-06T10:04:24.461Z,4.20
2023-02-06T10:07:12.857Z,4.10
2023-02-06T10:09:52.409Z,4.15
2023-02-06T10:12:29.628Z,4.10
2023-02-06T10:15:12.889Z,3.83
2023-02-06T10:17:51.238Z,3.92
2023-02-06T10:20:47.158Z,3.55
2023-02-06T10:25:51.483Z,3.95
2023-02-06T10:28:26.821Z,3.92
2023-02-06T10:31:15.287Z,3.80
2023-02-06T10:34:19.768Z,3.67
2023-02-06T10:37:14.746Z,3.90
2023-02-06T10:39:41.279Z,3.60
2023-02-06T10:42:31.097Z,3.78
2023-02-06T10:45:19.618Z,3.70
2023-02-06T10:47:54.243Z,3.72
2023-02-06T10:50:44.965Z,4.03
2023-02-06T10:53:24.147Z,5.28
2023-02-06T10:56:04.705Z,12.93
2023-02-06T10:58:40.708Z,14.80
2023-02-06T11:01:24.772Z,8.90
2023-02-06T11:04:00.105Z,8.80
2023-02-06T11:06:28.851Z,6.90
2023-02-06T11:08:56.040Z,4.60
2023-02-06T11:11:29.940Z,4.53
2023-02-06T11:14:27.129Z,4.20
2023-02-06T11:16:54.176Z,4.40
2023-02-06T11:19:41.426Z,4.55
2023-02-06T11:22:07.961Z,3.85
2023-02-06T11:24:35.513Z,4.28
2023-02-06T11:27:18.388Z,4.22
2023-02-06T11:29:51.011Z,9.20
2023-02-06T11:32:59.004Z,5.40
2023-02-06T11:35:39.472Z,3.97
2023-02-06T11:38:27.855Z,4.75
2023-02-06T11:41:04.231Z,5.88
2023-02-06T11:43:33.739Z,5.15
2023-02-06T11:46:19.773Z,3.90
2023-02-06T11:48:56.004Z,4.00
2023-02-06T11:51:24.346Z,3.78
2023-02-06T11:53:58.432Z,3.72
2023-02-06T11:56:25.943Z,3.72
2023-02-06T11:59:17.758Z,3.90
2023-02-06T12:01:47.910Z,3.83
2023-02-06T12:04:25.976Z,3.15
2023-02-06T12:07:28.644Z,3.38
2023-02-06T12:09:55.610Z,3.17
2023-02-06T12:12:36.207Z,3.30
2023-02-06T12:15:45.610Z,3.08
2023-02-06T12:18:34.655Z,3.70
2023-02-06T12:21:07.873Z,3.38
2023-02-06T12:23:47.265Z,3.42
2023-02-06T12:26:23.936Z,3.20
2023-02-06T12:29:06.000Z,3.60
2023-02-06T12:31:44.298Z,3.05
2023-02-06T12:34:18.330Z,3.30
2023-02-06T12:37:00.204Z,3.60
2023-02-06T12:39:32.285Z,3.33
2023-02-06T12:42:22.554Z,3.38
2023-02-06T12:45:03.773Z,3.20
2023-02-06T12:47:50.633Z,3.15
2023-02-06T12:50:32.154Z,3.58
2023-02-06T12:53:13.353Z,3.40
2023-02-06T12:56:20.402Z,3.70
2023-02-06T12:59:30.283Z,3.10
2023-02-06T13:02:01.126Z,3.28
2023-02-06T13:04:32.330Z,2.83
2023-02-06T13:07:07.809Z,3.20
2023-02-06T13:10:00.309Z,4.72
2023-02-06T13:12:30.802Z,4.45
2023-02-06T13:15:20.107Z,12.52
2023-02-06T13:17:46.853Z,5.25
2023-02-06T13:20:18.609Z,2.90
2023-02-06T13:23:21.099Z,2.75
2023-02-06T13:25:48.453Z,2.90
2023-02-06T13:28:25.439Z,3.13
2023-02-06T13:31:08.946Z,3.45
2023-02-06T13:33:58.500Z,3.15
2023-02-06T13:36:40.680Z,2.90
2023-02-06T13:39:22.799Z,3.30
2023-02-06T13:41:49.686Z,3.10
2023-02-06T13:44:36.876Z,3.17
2023-02-06T13:47:28.034Z,3.05
2023-02-06T13:50:36.371Z,2.80
2023-02-06T13:53:21.656Z,2.90
2023-02-06T13:56:13.800Z,2.20
2023-02-06T13:59:00.396Z,2.42
2023-02-06T14:01:31.025Z,2.40
2023-02-06T14:03:59.405Z,2.35
2023-02-06T14:06:40.266Z,2.70
2023-02-06T14:09:30.804Z,2.25
2023-02-06T14:12:27.147Z,1.95
2023-02-06T14:15:02.186Z,2.40
2023-02-06T14:17:47.540Z,2.13
2023-02-06T14:20:32.192Z,2.28
2023-02-06T14:23:07.394Z,1.97
2023-02-06T14:28:09.127Z,2.03
2023-02-06T14:30:51.576Z,2.00
2023-02-06T14:33:41.640Z,2.20
2023-02-06T14:36:34.746Z,2.30
2023-02-06T14:39:08.101Z,2.22
2023-02-06T14:41:39.644Z,1.80
2023-02-06T14:44:19.975Z,2.33
2023-02-06T14:46:46.916Z,2.35
2023-02-06T14:49:22.069Z,2.08
2023-02-06T14:54:38.284Z,2.42
2023-02-06T14:57:13.564Z,2.05
2023-02-06T15:02:40.117Z,2.70
2023-02-06T15:05:06.900Z,2.20
2023-02-06T15:07:36.743Z,2.38
2023-02-06T15:10:06.797Z,2.20
2023-02-06T15:12:35.133Z,2.10
2023-02-06T15:15:22.613Z,1.95
2023-02-06T15:18:00.849Z,2.35
2023-02-06T15:20:33.019Z,2.13
2023-02-06T15:23:17.768Z,1.83
2023-02-06T15:25:47.949Z,1.83
2023-02-06T15:28:22.740Z,2.05
2023-02-06T15:30:54.718Z,2.13
2023-02-06T15:33:30.288Z,2.05
2023-02-06T15:35:58.852Z,2.35
2023-02-06T15:38:28.037Z,2.05
2023-02-06T15:41:13.426Z,3.28
2023-02-06T15:43:41.493Z,2.53
2023-02-06T15:46:08.391Z,3.38
2023-02-06T15:48:38.918Z,3.10
2023-02-06T15:51:08.222Z,3.08
2023-02-06T15:53:39.823Z,2.83
2023-02-06T15:56:29.751Z,2.38
2023-02-06T15:58:59.540Z,2.30
2023-02-06T16:01:29.044Z,2.65
2023-02-06T16:03:59.483Z,2.25
2023-02-06T16:06:26.179Z,2.70
2023-02-06T16:08:56.992Z,2.03
2023-02-06T16:11:50.767Z,2.50
2023-02-06T16:14:23.218Z,2.20
2023-02-06T16:17:02.472Z,2.70
2023-02-06T16:19:45.065Z,2.83
2023-02-06T16:22:30.226Z,2.50
2023-02-06T16:25:30.406Z,2.63
2023-02-06T16:27:58.236Z,2.08
2023-02-06T16:30:32.140Z,2.85
2023-02-06T16:33:08.188Z,3.25
2023-02-06T16:35:34.850Z,4.15
2023-02-06T16:38:01.498Z,4.10
2023-02-06T16:40:28.138Z,3.47
2023-02-06T16:42:55.057Z,3.70
2023-02-06T16:45:25.710Z,3.72
2023-02-06T16:47:53.554Z,3.95
2023-02-06T16:50:21.749Z,3.13
2023-02-06T16:52:55.418Z,3.13
2023-02-06T16:55:25.039Z,9.20
2023-02-06T16:58:01.325Z,5.00
2023-02-06T17:00:31.393Z,3.58
2023-02-06T17:02:58.604Z,4.18
2023-02-06T17:05:27.540Z,2.83
2023-02-06T17:07:54.831Z,2.42
2023-02-06T17:10:24.565Z,2.50
2023-02-06T17:12:51.274Z,2.20
2023-02-06T17:15:19.445Z,2.85
2023-02-06T17:17:46.469Z,2.60
2023-02-06T17:20:33.462Z,2.95
2023-02-06T17:23:00.231Z,3.20
2023-02-06T17:25:26.865Z,3.70
2023-02-06T17:27:53.860Z,2.70
2023-02-06T17:30:22.528Z,2.83
2023-02-06T17:32:49.242Z,2.60
2023-02-06T17:35:16.807Z,2.30
2023-02-06T17:37:43.536Z,2.25
2023-02-06T17:40:18.592Z,2.58
2023-02-06T17:42:45.181Z,2.60
2023-02-06T17:45:11.720Z,1.85
2023-02-06T17:47:38.261Z,2.17
2023-02-06T17:50:05.171Z,2.00
2023-02-06T17:52:31.833Z,1.95
2023-02-06T17:54:58.444Z,2.00
2023-02-06T17:57:25.008Z,3.15
2023-02-06T17:59:54.629Z,3.00
2023-02-06T18:02:21.404Z,10.73
2023-02-06T18:04:52.881Z,13.38
2023-02-06T18:07:20.665Z,11.32
2023-02-06T18:09:47.938Z,8.52
2023-02-06T18:12:15.781Z,7.00
2023-02-06T18:14:43.970Z,4.72
2023-02-06T18:17:11.029Z,4.88
2023-02-06T18:19:42.160Z,4.55
2023-02-06T18:22:11.646Z,4.10
2023-02-06T18:24:38.819Z,4.20
2023-02-06T18:27:06.699Z,5.95
2023-02-06T18:29:48.957Z,8.40
2023-02-06T18:32:17.985Z,12.90
2023-02-06T18:34:44.953Z,5.40
2023-02-06T18:37:11.576Z,3.78
2023-02-06T18:39:39.184Z,4.20
2023-02-06T18:42:24.637Z,3.95
2023-02-06T18:44:51.316Z,4.80
2023-02-06T18:47:18.839Z,4.68
2023-02-06T18:49:45.540Z,4.78
2023-02-06T18:52:12.428Z,4.45
2023-02-06T18:54:39.510Z,4.47
2023-02-06T18:57:06.453Z,4.75
2023-02-06T18:59:33.341Z,4.40
2023-02-06T19:02:00.101Z,4.43
2023-02-06T19:04:26.798Z,4.03
2023-02-06T19:06:53.533Z,4.65
2023-02-06T19:09:20.209Z,4.10
2023-02-06T19:11:48.293Z,5.05
2023-02-06T19:14:17.199Z,5.15
2023-02-06T19:16:47.298Z,5.40
2023-02-06T19:19:14.605Z,5.50
2023-02-06T19:21:41.663Z,8.07
2023-02-06T19:24:11.126Z,4.65
2023-02-06T19:26:37.842Z,5.97
2023-02-06T19:29:05.048Z,4.35
2023-02-06T19:31:32.252Z,4.18
2023-02-06T19:34:02.123Z,4.82
2023-02-06T19:36:30.066Z,5.25
2023-02-06T19:39:00.108Z,5.32
2023-02-06T19:41:28.816Z,5.45
2023-02-06T19:43:56.715Z,5.72
2023-02-06T19:46:26.864Z,5.85
2023-02-06T19:48:55.239Z,5.80
2023-02-06T19:51:27.881Z,5.80
2023-02-06T19:53:55.988Z,6.95
2023-02-06T19:56:37.266Z,6.88
2023-02-06T19:59:20.465Z,5.85
2023-02-06T20:01:52.784Z,5.55
2023-02-06T20:04:21.326Z,5.72
2023-02-06T20:06:49.930Z,5.63
2023-02-06T20:09:18.112Z,5.53
2023-02-06T20:11:44.881Z,6.60
2023-02-06T20:14:12.233Z,6.15
2023-02-06T20:16:41.158Z,6.40
2023-02-06T20:19:10.733Z,5.50
2023-02-06T20:21:39.723Z,6.22
2023-02-06T20:24:12.266Z,6.70
2023-02-06T20:26:41.088Z,6.03
2023-02-06T20:29:09.197Z,6.22
2023-02-06T20:31:36.661Z,5.93
2023-02-06T20:34:03.408Z,6.03
2023-02-06T20:36:30.040Z,6.05
2023-02-06T20:38:59.030Z,5.68
2023-02-06T20:41:31.401Z,5.78
2023-02-06T20:44:01.742Z,5.45
2023-02-06T20:46:29.983Z,5.10
2023-02-06T20:49:02.200Z,5.93
2023-02-06T20:51:29.718Z,11.10
2023-02-06T20:53:56.698Z,6.70
2023-02-06T20:56:24.144Z,5.80
2023-02-06T21:03:19.839Z,5.57
2023-02-06T21:05:58.934Z,6.82
2023-02-06T21:08:26.061Z,8.10
2023-02-06T21:10:52.721Z,8.52
2023-02-06T21:13:19.598Z,6.93
2023-02-06T21:15:53.797Z,5.53
2023-02-06T21:18:22.095Z,5.55
2023-02-06T21:20:50.365Z,5.47
2023-02-06T21:23:17.571Z,5.45
2023-02-06T21:25:51.640Z,5.43
2023-02-06T21:28:18.568Z,5.80
2023-02-06T21:30:45.997Z,11.63
2023-02-06T21:33:12.999Z,5.75
2023-02-06T21:35:40.290Z,5.63
2023-02-06T21:38:07.511Z,5.63
2023-02-06T21:40:34.062Z,5.30
2023-02-06T21:43:00.669Z,5.30
2023-02-06T21:45:27.243Z,5.03
2023-02-06T21:47:53.765Z,5.35
2023-02-06T21:50:20.566Z,4.95
2023-02-06T21:52:47.262Z,5.15
2023-02-06T21:55:14.842Z,4.82
2023-02-06T21:57:41.475Z,5.18
2023-02-06T22:00:09.760Z,4.68
2023-02-06T22:02:37.464Z,4.57
2023-02-06T22:05:07.028Z,4.45
2023-02-06T22:07:37.598Z,4.82
2023-02-06T22:10:05.559Z,4.88
2023-02-06T22:12:32.505Z,4.82
2023-02-06T22:14:59.130Z,4.72
2023-02-06T22:17:27.746Z,4.60
2023-02-06T22:19:54.421Z,4.30
2023-02-06T22:22:21.189Z,5.13
2023-02-06T22:24:51.075Z,5.15
2023-02-06T22:27:18.509Z,4.95
2023-02-06T22:29:45.196Z,4.20
2023-02-06T22:32:11.803Z,4.75
2023-02-06T22:34:38.571Z,4.25
2023-02-06T22:37:05.112Z,4.03
2023-02-06T22:39:31.702Z,4.20
2023-02-06T22:41:58.316Z,4.38
2023-02-06T22:44:24.851Z,4.25
2023-02-06T22:46:52.741Z,4.43
2023-02-06T22:49:20.788Z,4.22
2023-02-06T22:51:47.405Z,4.22
2023-02-06T22:54:14.355Z,3.92
2023-02-06T22:56:42.506Z,3.92
2023-02-06T22:59:18.331Z,3.90
2023-02-06T23:01:54.936Z,4.28
2023-02-06T23:04:29.923Z,4.03
2023-02-06T23:06:57.207Z,3.80
2023-02-06T23:09:30.157Z,3.40
2023-02-06T23:12:00.101Z,3.30
2023-02-06T23:14:29.137Z,3.20
2023-02-06T23:16:56.158Z,3.30
2023-02-06T23:19:22.890Z,3.35
2023-02-06T23:21:51.172Z,3.50
2023-02-06T23:24:18.298Z,3.08
2023-02-06T23:26:47.261Z,3.15
2023-02-06T23:29:17.088Z,3.03
2023-02-06T23:31:45.893Z,3.30
2023-02-06T23:34:12.967Z,3.35
2023-02-06T23:36:39.647Z,2.97
2023-02-06T23:39:06.420Z,3.00
2023-02-06T23:41:33.571Z,2.90
2023-02-06T23:44:04.275Z,2.60
2023-02-06T23:46:34.350Z,2.55
2023-02-06T23:49:01.019Z,2.70
2023-02-06T23:51:28.195Z,2.90
2023-02-06T23:53:54.774Z,2.72
2023-02-06T23:56:24.785Z,2.50
2023-02-06T23:58:52.555Z,2.80
